首页
METAR-TAF:

METAR-TAF

机场 :

多倫多皮爾遜國際機場

多伦多, 安大略省, 加拿大

纬度: 43-40N, 经度: 079-38W, 海拔: 173米

当前天气观测

该预报发布于42分钟前的16:00 UTC
风速10节,风向南转西南,有时为16节阵风,在西转西北之间变化
温度 27°C
湿度 62%
气压 1014 hPa
能見度: 24.1公里
散云层高于4000英尺
散云层高于25000英尺

METAR: CYYZ 261600Z 21010G16KT 190V290 15SM SCT040 SCT250 27/19 A2995 RMK CU3CI1 SLP141 DENSITY ALT 2100FT

时间: 12:42 (16:42 UTC)

预报

该预报发布于2小时和4分钟前的14:38 UTC
预报有效从26日的 15点(UTC)到 27日的 18点(UTC)
风速10节,风向西转西南,有时为20节阵风
能見度: 10公里
少量云层高于5000英尺
从 26日的 1700点(UTC)
风速15节,风向西,有时为25节阵风
能見度: 10公里
散云层高于6000英尺
从 26日的 2300点(UTC)
风速10节,风向西,有时为20节阵风
能見度: 10公里
天空无云
成为
从 27日的 02点(UTC)到 27日的 04点(UTC)
风速7节,风向西南
从 27日的 0600点(UTC)
风速10节,风向西
能見度: 10公里
多云层高于7000英尺
从 27日的 0800点(UTC)
风速7节,风向西
能見度: 10公里
少量云层高于7000英尺
成为
从 27日的 09点(UTC)到 27日的 11点(UTC)
风速5节,风向西南
成为
从 27日的 13点(UTC)到 27日的 15点(UTC)
风速10节,风向西转西南,有时为20节阵风

TAF: CYYZ 261438Z 2615/2718 25010G20KT P6SM FEW050 FM261700 26015G25KT P6SM SCT060 FM262300 28010G20KT P6SM SKC BECMG 2702/2704 23007KT FM270600 27010KT P6SM BKN070 FM270800 27007KT P6SM FEW070 BECMG 2709/2711 23005KT BECMG 2713/2715 24010G20KT RMK NXT FCST BY 261800Z

超过4000个机场的气象观测和天气预报(METAR&TAF报告)。

可查询的气象台以黄色和红色小点在地图上表示。

将鼠标移到小点上方,可查看气象台名称。

然后点击查看天气观测和预报。

如需切换地图:点击带黑十字的绿色按钮放大地图;点击带横线的绿色按钮缩小地图;或者点击绿色箭头查看邻近地区的地图。


METAR-TAF: